John_paul K — PBHY — position and weather

sailwx.info

Track history (hours):
 
Tides and Currents Weather Stations Pressure Air Temp Water Temp Dewpoint Dewpoint Depression Visibility Wind Speed Wind Dir Waves Ship Positions

John_paul K

Last reported at 2014-Oct-29 13:28 UTC. Time now 2014-Oct-30 17:37 UTC.
Position N 48°04' W 006°04'.

Length 90 m; draft 4.1 m.

Type: Cargo ship. MMSI: 245181000.

Date/timePositionNaut miles runAvg speedWind from/ knotsBaromVisibWave heightAir tempDewpointWater temp
2014-Oct-29 13:28N 48°04' W 006°04'29310.9
2014-Oct-28 10:33N 50°36' E 000°20'1010.0
2014-Oct-28 09:33N 50°39' E 000°35'1211.7
2014-Oct-28 08:33N 50°46' E 000°50'1712.7
2014-Oct-28 07:14N 50°56' E 001°11'1012.3
2014-Oct-28 06:26N 51°02' E 001°24'1011.1
2014-Oct-28 05:33N 51°09' E 001°35'10 9.8
2014-Oct-28 04:33N 51°15' E 001°47'9 9.5
2014-Oct-28 03:33N 51°23' E 001°56'10 9.7
2014-Oct-28 02:33N 51°31' E 002°06'1110.5
2014-Oct-28 01:33N 51°38' E 002°17'1211.8
2014-Oct-28 00:32N 51°47' E 002°30'1312.9
2014-Oct-27 23:32N 51°56' E 002°45'1212.0
2014-Oct-27 22:33N 52°01' E 003°02'1312.5
2014-Oct-27 21:32N 52°04' E 003°22'1212.1
2014-Oct-27 20:33N 52°04' E 003°41'1010.4
2014-Oct-27 19:33N 52°02' E 003°58'1212.0
2014-Oct-27 18:33N 51°55' E 004°14'2 2.2
2014-Oct-27 17:33N 51°53' E 004°17'0 0.0
2014-Oct-27 16:33N 51°53' E 004°17'0 0.0
2014-Oct-27 15:30N 51°53' E 004°17'0 0.0
2014-Oct-27 14:27N 51°53' E 004°17'0 0.0
2014-Oct-27 13:33N 51°53' E 004°17'0 0.0
2014-Oct-27 12:33N 51°53' E 004°17'0 0.0
2014-Oct-27 11:24N 51°53' E 004°17'0 0.0
2014-Oct-27 10:33N 51°53' E 004°17'0 0.0
2014-Oct-27 09:33N 51°53' E 004°17'0 0.0
2014-Oct-27 08:33N 51°53' E 004°17'0 0.0
2014-Oct-27 07:33N 51°53' E 004°17'0 0.0
2014-Oct-27 06:33N 51°53' E 004°17'0 0.0
2014-Oct-27 05:33N 51°53' E 004°17'0 0.0
2014-Oct-27 04:33N 51°53' E 004°17'0 0.0
2014-Oct-27 03:33N 51°53' E 004°17'0 0.0
2014-Oct-27 02:33N 51°53' E 004°17'0 0.0
2014-Oct-27 01:32N 51°53' E 004°17'0 0.0
2014-Oct-27 00:29N 51°53' E 004°17'0 0.0
2014-Oct-26 23:32N 51°53' E 004°17'0 0.0
2014-Oct-26 22:32N 51°53' E 004°17'0 0.0
2014-Oct-26 21:32N 51°53' E 004°17'0 0.0
2014-Oct-26 20:32N 51°53' E 004°17'0 0.0
2014-Oct-26 19:32N 51°53' E 004°17'0 0.0
2014-Oct-26 18:32N 51°53' E 004°17'0 0.0
2014-Oct-26 17:32N 51°53' E 004°17'0 0.0
2014-Oct-26 16:32N 51°53' E 004°17'0 0.0
2014-Oct-26 15:23N 51°53' E 004°17'0 0.1
2014-Oct-26 14:33N 51°53' E 004°17'6 5.5
2014-Oct-26 13:33N 51°57' E 004°10'9 9.1
2014-Oct-26 12:33N 52°00' E 003°56'7 6.9
2014-Oct-26 11:33N 51°56' E 003°48'0 0.3
2014-Oct-26 10:29N 51°55' E 003°48'0 0.0
2014-Oct-26 09:32N 51°55' E 003°48'0 0.1
2014-Oct-26 07:26N 51°55' E 003°49'0 0.0
2014-Oct-26 05:32N 51°56' E 003°49'0 0.0
2014-Oct-26 04:29N 51°56' E 003°49'0 0.0
2014-Oct-26 03:32N 51°56' E 003°49'0 0.0
2014-Oct-26 02:32N 51°56' E 003°49'0 0.1
2014-Oct-25 23:29N 51°55' E 003°48'0 0.0
2014-Oct-25 22:29N 51°55' E 003°48'0 0.1
2014-Oct-25 18:17N 51°56' E 003°49'0 0.0
2014-Oct-25 17:16N 51°56' E 003°49'0 0.0
2014-Oct-25 15:28N 51°56' E 003°49'0 0.0
2014-Oct-25 13:16N 51°56' E 003°49'0 0.1
2014-Oct-25 12:28N 51°55' E 003°49'0 0.1
2014-Oct-25 10:28N 51°55' E 003°49'0 0.0
2014-Oct-25 09:31N 51°55' E 003°49'0 0.0
2014-Oct-25 08:31N 51°55' E 003°49'0 0.1
2014-Oct-25 06:13N 51°55' E 003°49'0 0.1
2014-Oct-25 05:31N 51°56' E 003°49'0 0.0
2014-Oct-25 04:28N 51°56' E 003°49'0 0.0
2014-Oct-25 03:28N 51°56' E 003°49'0 0.0
2014-Oct-25 01:28N 51°56' E 003°49'0 0.0
2014-Oct-25 00:31N 51°55' E 003°49'0 0.0
2014-Oct-24 23:25N 51°55' E 003°49'0 0.2
2014-Oct-24 22:31N 51°55' E 003°48'0 0.0
2014-Oct-24 21:25N 51°55' E 003°49'0 0.1
2014-Oct-24 20:19N 51°55' E 003°48'4 5.1
2014-Oct-24 19:28N 51°57' E 003°42'65 9.1
2014-Oct-24 12:19N 51°23' E 002°12'810.6
2014-Oct-24 11:33N 51°16' E 002°05'1010.3
2014-Oct-24 10:33N 51°09' E 001°53'9 9.5
2014-Oct-24 09:33N 51°03' E 001°43'8 7.9
2014-Oct-24 08:32N 50°57' E 001°34'  
Track history (hours):
 
Tides and Currents Weather Stations Pressure Air Temp Water Temp Dewpoint Dewpoint Depression Visibility Wind Speed Wind Dir Waves Ship Positions

John_paul K

Last reported at 2014-Oct-29 13:28 UTC. Time now 2014-Oct-30 17:37 UTC.
Position N 48°04' W 006°04'.

Length 90 m; draft 4.1 m.

Type: Cargo ship. MMSI: 245181000.

Date/timePositionNaut miles runAvg speedWind from/ knotsBaromVisibWave heightAir tempDewpointWater temp
2014-Oct-29 13:28N 48°04' W 006°04'29310.9
2014-Oct-28 10:33N 50°36' E 000°20'1010.0
2014-Oct-28 09:33N 50°39' E 000°35'1211.7
2014-Oct-28 08:33N 50°46' E 000°50'1712.7
2014-Oct-28 07:14N 50°56' E 001°11'1012.3
2014-Oct-28 06:26N 51°02' E 001°24'1011.1
2014-Oct-28 05:33N 51°09' E 001°35'10 9.8
2014-Oct-28 04:33N 51°15' E 001°47'9 9.5
2014-Oct-28 03:33N 51°23' E 001°56'10 9.7
2014-Oct-28 02:33N 51°31' E 002°06'1110.5
2014-Oct-28 01:33N 51°38' E 002°17'1211.8
2014-Oct-28 00:32N 51°47' E 002°30'1312.9
2014-Oct-27 23:32N 51°56' E 002°45'1212.0
2014-Oct-27 22:33N 52°01' E 003°02'1312.5
2014-Oct-27 21:32N 52°04' E 003°22'1212.1
2014-Oct-27 20:33N 52°04' E 003°41'1010.4
2014-Oct-27 19:33N 52°02' E 003°58'1212.0
2014-Oct-27 18:33N 51°55' E 004°14'2 2.2
2014-Oct-27 17:33N 51°53' E 004°17'0 0.0
2014-Oct-27 16:33N 51°53' E 004°17'0 0.0
2014-Oct-27 15:30N 51°53' E 004°17'0 0.0
2014-Oct-27 14:27N 51°53' E 004°17'0 0.0
2014-Oct-27 13:33N 51°53' E 004°17'0 0.0
2014-Oct-27 12:33N 51°53' E 004°17'0 0.0
2014-Oct-27 11:24N 51°53' E 004°17'0 0.0
2014-Oct-27 10:33N 51°53' E 004°17'0 0.0
2014-Oct-27 09:33N 51°53' E 004°17'0 0.0
2014-Oct-27 08:33N 51°53' E 004°17'0 0.0
2014-Oct-27 07:33N 51°53' E 004°17'0 0.0
2014-Oct-27 06:33N 51°53' E 004°17'0 0.0
2014-Oct-27 05:33N 51°53' E 004°17'0 0.0
2014-Oct-27 04:33N 51°53' E 004°17'0 0.0
2014-Oct-27 03:33N 51°53' E 004°17'0 0.0
2014-Oct-27 02:33N 51°53' E 004°17'0 0.0
2014-Oct-27 01:32N 51°53' E 004°17'0 0.0
2014-Oct-27 00:29N 51°53' E 004°17'0 0.0
2014-Oct-26 23:32N 51°53' E 004°17'0 0.0
2014-Oct-26 22:32N 51°53' E 004°17'0 0.0
2014-Oct-26 21:32N 51°53' E 004°17'0 0.0
2014-Oct-26 20:32N 51°53' E 004°17'0 0.0
2014-Oct-26 19:32N 51°53' E 004°17'0 0.0
2014-Oct-26 18:32N 51°53' E 004°17'0 0.0
2014-Oct-26 17:32N 51°53' E 004°17'0 0.0
2014-Oct-26 16:32N 51°53' E 004°17'0 0.0
2014-Oct-26 15:23N 51°53' E 004°17'0 0.1
2014-Oct-26 14:33N 51°53' E 004°17'6 5.5
2014-Oct-26 13:33N 51°57' E 004°10'9 9.1
2014-Oct-26 12:33N 52°00' E 003°56'7 6.9
2014-Oct-26 11:33N 51°56' E 003°48'0 0.3
2014-Oct-26 10:29N 51°55' E 003°48'0 0.0
2014-Oct-26 09:32N 51°55' E 003°48'0 0.1
2014-Oct-26 07:26N 51°55' E 003°49'0 0.0
2014-Oct-26 05:32N 51°56' E 003°49'0 0.0
2014-Oct-26 04:29N 51°56' E 003°49'0 0.0
2014-Oct-26 03:32N 51°56' E 003°49'0 0.0
2014-Oct-26 02:32N 51°56' E 003°49'0 0.1
2014-Oct-25 23:29N 51°55' E 003°48'0 0.0
2014-Oct-25 22:29N 51°55' E 003°48'0 0.1
2014-Oct-25 18:17N 51°56' E 003°49'0 0.0
2014-Oct-25 17:16N 51°56' E 003°49'0 0.0
2014-Oct-25 15:28N 51°56' E 003°49'0 0.0
2014-Oct-25 13:16N 51°56' E 003°49'0 0.1
2014-Oct-25 12:28N 51°55' E 003°49'0 0.1
2014-Oct-25 10:28N 51°55' E 003°49'0 0.0
2014-Oct-25 09:31N 51°55' E 003°49'0 0.0
2014-Oct-25 08:31N 51°55' E 003°49'0 0.1
2014-Oct-25 06:13N 51°55' E 003°49'0 0.1
2014-Oct-25 05:31N 51°56' E 003°49'0 0.0
2014-Oct-25 04:28N 51°56' E 003°49'0 0.0
2014-Oct-25 03:28N 51°56' E 003°49'0 0.0
2014-Oct-25 01:28N 51°56' E 003°49'0 0.0
2014-Oct-25 00:31N 51°55' E 003°49'0 0.0
2014-Oct-24 23:25N 51°55' E 003°49'0 0.2
2014-Oct-24 22:31N 51°55' E 003°48'0 0.0
2014-Oct-24 21:25N 51°55' E 003°49'0 0.1
2014-Oct-24 20:19N 51°55' E 003°48'4 5.1
2014-Oct-24 19:28N 51°57' E 003°42'65 9.1
2014-Oct-24 12:19N 51°23' E 002°12'810.6
2014-Oct-24 11:33N 51°16' E 002°05'1010.3
2014-Oct-24 10:33N 51°09' E 001°53'9 9.5
2014-Oct-24 09:33N 51°03' E 001°43'8 7.9
2014-Oct-24 08:32N 50°57' E 001°34'  

Dump ship's entire track history